CTA7 weather

CLOSED Montréal / Boucherville Water Aerodrome
Quebec, Canada

Public forecast

Using degrees Celsius for public forecast. Weather courtesy of forecast.io.

METAR (pilot weather report)

Closest report is Montréal / Saint-Hubert Airport, 6.8 nm (12.6 km) SSE. Retrieved 2019/09/16 03:00 UTC (19 minutes ago):

CYHU 160300Z AUTO 29005KT 9SM CLR 14/07 A3007 RMK SLP185

TAF (pilot weather forecast)

Forecast is more than 12 hours old.

Closest forecast is Montréal / Saint-Hubert Airport, 6.8 nm (12.6 km) SSE. Retrieved 2019/09/15 00:42 UTC (1 day ago):

TAF CYHU 152338Z 1600/1624 26010G20KT P6SM BKN050 TEMPO 1602/1606 FEW050 BECMG 1602/1604 28008KT FM160600 30006KT P6SM FEW050 BECMG 1614/1616 27010KT FM162000 29012KT P6SM SCT050 BECMG 1622/1624 34009KT RMK FCST BASED ON AUTO OBS. NXT FCST BY 160600Z